Time;durP1;ratioP1;P1;durP2;ratioP2;P2;SDS_P1;SDS_P2;PMS_P1;PMS_P2;Temp;Humidity;BMP_temperature;BMP_pressure;BME280_temperature;BME280_humidity;BME280_pressure;Samples;Min_cycle;Max_cycle;Signal;HPM_P1;HPM_P2
2023/04/13 00:03:18;;;;;;;;;;;14.60;47.20;;;13.42;47.12;99590.22;12253363;19;19936;-83
2023/04/13 00:07:21;;;;;;;;;;;14.60;47.10;;;13.52;47.17;99615.63;12251638;19;19923;-83
2023/04/13 00:11:23;;;;;;;;;;;14.60;47.20;;;13.41;47.25;99595.56;12254829;19;19939;-83
2023/04/13 00:15:24;;;;;;;;;;;14.60;47.10;;;13.43;47.26;99597.09;12252450;19;20363;-83
2023/04/13 00:19:27;;;;;;;;;;;14.60;47.60;;;13.42;47.18;99597.22;12250579;19;19919;-83
2023/04/13 00:23:29;;;;;;;;;;;14.60;47.20;;;13.48;47.18;99612.44;12251336;19;19926;-83
2023/04/13 00:27:30;;;;;;;;;;;14.60;47.20;;;13.35;47.23;99591.69;12248695;19;19923;-83
2023/04/13 00:31:34;;;;;;;;;;;14.60;47.40;;;13.49;47.41;99621.97;12251541;19;19915;-83
2023/04/13 00:35:36;;;;;;;;;;;14.60;47.10;;;13.33;47.30;99601.47;12251002;19;20305;-83
2023/04/13 00:39:38;;;;;;;;;;;14.50;47.10;;;13.39;47.41;99607.97;12253027;19;19923;-83
2023/04/13 00:43:39;;;;;;;;;;;14.50;47.10;;;13.34;47.51;99621.50;12248348;19;20382;-83
2023/04/13 00:47:42;;;;;;;;;;;14.50;47.00;;;13.33;47.51;99647.84;12248876;19;19925;-83
2023/04/13 00:51:44;;;;;;;;;;;14.50;47.00;;;13.18;47.41;99627.16;12251368;19;19918;-83
2023/04/13 00:55:47;;;;;;;;;;;14.50;47.10;;;13.34;47.51;99657.34;12246721;19;19914;-83
2023/04/13 00:59:49;;;;;;;;;;;14.50;47.10;;;13.30;47.49;99655.97;12250338;19;20022;-83
2023/04/13 01:03:52;;;;;;;;;;;14.40;47.20;;;13.30;47.52;99655.97;12248765;19;19911;-83
2023/04/13 01:08:09;;;;;;;;;;;14.40;47.20;;;13.28;47.59;99663.94;12248890;19;19919;-84
2023/04/13 01:12:30;;;;;;;;;;;14.40;47.20;;;13.24;47.54;99673.00;12250688;19;19921;-84
2023/04/13 01:16:41;;;;;;;;;;;14.30;47.10;;;13.18;47.56;99671.72;12247302;19;20367;-84
2023/04/13 01:20:45;;;;;;;;;;;14.30;47.10;;;13.15;47.59;99682.47;12248981;19;20337;-84
2023/04/13 01:24:53;;;;;;;;;;;14.30;47.20;;;13.18;47.69;99697.13;12248533;19;19911;-83
2023/04/13 01:28:54;;;;;;;;;;;14.30;47.10;;;13.08;47.65;99710.13;12254053;19;19907;-83
2023/04/13 01:32:58;;;;;;;;;;;14.20;47.20;;;12.96;47.60;99687.53;12261839;19;20364;-83
2023/04/13 01:37:04;;;;;;;;;;;14.20;47.20;;;13.04;47.58;99722.66;12254953;19;19919;-83
2023/04/13 01:41:05;;;;;;;;;;;14.20;47.20;;;12.78;47.66;99706.44;12263822;19;19959;-84
2023/04/13 01:45:17;;;;;;;;;;;14.10;47.10;;;12.87;47.76;99727.59;12260609;19;19922;-83
2023/04/13 01:49:21;;;;;;;;;;;14.10;47.20;;;12.93;47.67;99742.81;12263144;19;19925;-83
2023/04/13 01:53:52;;;;;;;;;;;14.00;47.20;;;12.88;47.64;99753.69;12261204;19;19936;-84
2023/04/13 01:57:56;;;;;;;;;;;14.00;47.20;;;12.80;47.71;99750.88;12256000;19;20260;-84
2023/04/13 02:01:58;;;;;;;;;;;13.90;47.40;;;12.59;47.86;99730.66;12259874;19;19925;-84
2023/04/13 02:06:02;;;;;;;;;;;13.90;47.40;;;12.70;47.78;99771.72;12258157;19;19922;-83
2023/04/13 02:10:05;;;;;;;;;;;13.80;47.30;;;12.48;47.97;99740.31;12260954;19;19914;-83
2023/04/13 02:14:08;;;;;;;;;;;13.80;47.30;;;12.64;47.90;99772.19;12260076;19;19947;-84
2023/04/13 02:18:10;;;;;;;;;;;13.80;47.40;;;12.67;47.94;99784.22;12256920;19;19910;-83
2023/04/13 02:22:12;;;;;;;;;;;13.80;47.50;;;12.57;47.94;99777.06;12258574;19;19957;-83
2023/04/13 02:26:17;;;;;;;;;;;13.70;47.40;;;12.54;47.89;99774.69;12259008;19;19974;-83
2023/04/13 02:30:19;;;;;;;;;;;13.70;47.50;;;12.48;47.91;99775.19;12261804;19;20263;-83
2023/04/13 02:34:21;;;;;;;;;;;13.60;47.50;;;12.43;48.04;99777.34;12261502;19;19922;-84
2023/04/13 02:38:24;;;;;;;;;;;13.60;47.60;;;12.45;48.14;99785.91;12259791;19;19930;-84
2023/04/13 02:42:29;;;;;;;;;;;13.50;48.00;;;12.14;48.07;99750.81;12255878;19;19939;-84
2023/04/13 02:46:31;;;;;;;;;;;13.50;47.70;;;12.19;48.25;99759.13;12255828;19;19926;-84
2023/04/13 02:50:41;;;;;;;;;;;13.40;47.90;;;12.09;48.31;99761.63;12260414;19;19931;-83
2023/04/13 02:54:53;;;;;;;;;;;13.40;47.80;;;12.05;48.27;99756.75;12258591;19;19926;-84
2023/04/13 02:58:56;;;;;;;;;;;13.30;47.70;;;12.01;48.17;99752.69;12260860;19;19915;-84
2023/04/13 03:02:58;;;;;;;;;;;13.30;47.70;;;12.20;48.28;99786.13;12256826;19;19918;-84
2023/04/13 03:07:09;;;;;;;;;;;13.30;47.60;;;12.08;48.32;99780.91;12255881;19;19933;-84
2023/04/13 03:11:16;;;;;;;;;;;13.30;47.70;;;12.00;48.32;99770.19;12257813;19;19919;-84
2023/04/13 03:15:24;;;;;;;;;;;13.40;47.70;;;12.14;48.42;99803.16;12257429;19;19993;-84
2023/04/13 03:19:28;;;;;;;;;;;13.20;47.70;;;12.07;48.26;99812.41;12257773;19;19930;-83
2023/04/13 03:23:30;;;;;;;;;;;13.20;47.60;;;12.03;48.35;99806.56;12253959;19;19918;-83
2023/04/13 03:27:33;;;;;;;;;;;13.40;47.80;;;11.78;48.33;99772.75;12252687;19;19927;-84
2023/04/13 03:31:34;;;;;;;;;;;13.20;47.60;;;12.06;48.44;99826.44;12256199;19;20021;-84
2023/04/13 03:35:36;;;;;;;;;;;13.10;47.60;;;11.77;48.39;99774.50;12255421;19;19941;-84
2023/04/13 03:39:41;;;;;;;;;;;13.20;47.70;;;11.97;48.50;99817.53;12256036;19;19915;-84
2023/04/13 03:43:46;;;;;;;;;;;13.10;47.60;;;11.99;48.46;99825.22;12252792;19;19923;-84
2023/04/13 03:47:48;;;;;;;;;;;13.20;47.60;;;11.91;48.32;99807.53;12249761;19;19918;-85
2023/04/13 03:51:51;;;;;;;;;;;13.10;47.50;;;11.74;48.48;99791.25;12252027;19;19962;-84
2023/04/13 03:55:54;;;;;;;;;;;13.10;47.60;;;11.76;48.29;99799.00;12247486;19;19911;-84
2023/04/13 03:59:55;;;;;;;;;;;13.10;47.50;;;11.70;48.55;99810.75;12255172;19;19921;-84
2023/04/13 04:08:32;;;;;;;;;;;13.10;47.50;;;12.01;48.54;99866.03;12193252;19;19940;-86
2023/04/13 04:12:38;;;;;;;;;;;13.10;47.50;;;11.93;48.51;99866.59;12244964;19;19915;-87
2023/04/13 04:16:42;;;;;;;;;;;13.10;47.40;;;11.92;48.43;99877.19;12247566;19;19925;-87
2023/04/13 04:20:48;;;;;;;;;;;13.30;47.40;;;11.79;48.37;99858.94;12250179;19;20328;-85
2023/04/13 04:24:51;;;;;;;;;;;13.00;47.40;;;11.77;48.53;99878.31;12255580;19;20609;-84
2023/04/13 04:29:01;;;;;;;;;;;13.00;47.20;;;11.77;48.39;99880.91;12253994;19;20340;-84
2023/04/13 04:33:03;;;;;;;;;;;13.00;47.20;;;11.75;48.42;99891.50;12248240;19;19919;-84
2023/04/13 04:37:12;;;;;;;;;;;12.90;47.20;;;11.69;48.55;99894.56;12253369;19;19936;-85
2023/04/13 04:41:19;;;;;;;;;;;12.80;47.20;;;11.56;48.64;99901.63;12252600;19;19927;-85
2023/04/13 04:45:26;;;;;;;;;;;12.80;47.20;;;11.54;48.70;99908.75;12251772;19;19927;-84
2023/04/13 04:49:29;;;;;;;;;;;12.80;47.20;;;11.47;48.50;99898.72;12251131;19;19971;-84
2023/04/13 04:53:32;;;;;;;;;;;12.70;47.20;;;11.29;48.42;99869.53;12252664;19;19931;-84
2023/04/13 04:57:36;;;;;;;;;;;12.80;47.20;;;11.47;48.53;99910.97;12248072;19;19923;-84
2023/04/13 05:01:39;;;;;;;;;;;12.60;47.20;;;11.27;48.68;99878.44;12248659;19;19945;-87
2023/04/13 05:05:45;;;;;;;;;;;12.60;47.20;;;11.39;48.67;99897.63;12247588;19;20369;-84
2023/04/13 05:09:52;;;;;;;;;;;12.50;47.20;;;11.01;48.68;99844.53;12252012;19;19922;-84
2023/04/13 05:13:54;;;;;;;;;;;12.50;47.20;;;11.23;48.72;99890.03;12251996;19;19923;-84
2023/04/13 05:17:58;;;;;;;;;;;12.50;47.30;;;11.22;48.78;99901.44;12250557;19;19935;-85
2023/04/13 05:22:03;;;;;;;;;;;12.40;47.20;;;11.15;48.65;99906.28;12247100;19;20337;-84
2023/04/13 05:26:11;;;;;;;;;;;12.40;47.20;;;11.14;48.77;99938.56;12247149;19;19923;-84
2023/04/13 05:30:13;;;;;;;;;;;12.30;47.30;;;11.12;48.84;99934.38;12249600;19;19954;-85
2023/04/13 05:34:17;;;;;;;;;;;12.30;47.40;;;11.05;48.93;99919.16;12251367;19;19919;-85
2023/04/13 05:38:44;;;;;;;;;;;12.30;47.40;;;10.79;48.65;99875.72;12243693;19;19936;-85
2023/04/13 05:42:48;;;;;;;;;;;12.30;47.40;;;11.07;48.77;99935.56;12246744;19;20252;-85
2023/04/13 05:46:56;;;;;;;;;;;12.30;47.50;;;11.02;48.77;99932.44;12247036;19;19918;-85
2023/04/13 05:50:58;;;;;;;;;;;12.20;47.60;;;11.05;48.90;99949.66;12245249;19;19926;-85
2023/04/13 05:55:05;;;;;;;;;;;12.20;47.70;;;11.06;49.01;99948.72;12242742;19;19951;-85
2023/04/13 05:59:07;;;;;;;;;;;12.30;47.90;;;10.96;49.13;99934.63;12242366;19;19915;-84
2023/04/13 06:03:09;;;;;;;;;;;12.30;47.90;;;11.00;49.01;99942.16;12242159;19;20328;-85
2023/04/13 06:07:15;;;;;;;;;;;12.30;48.00;;;11.06;48.93;99952.16;12244371;19;19919;-84
2023/04/13 06:11:17;;;;;;;;;;;12.40;48.60;;;11.09;49.05;99964.19;12243756;19;19914;-84
2023/04/13 06:15:19;;;;;;;;;;;12.40;48.30;;;11.18;49.08;99983.59;12250555;19;19929;-85
2023/04/13 06:19:22;;;;;;;;;;;12.40;48.60;;;11.15;49.19;99976.84;12257937;19;20325;-85
2023/04/13 06:23:24;;;;;;;;;;;12.40;48.30;;;11.29;49.32;99999.38;12254236;19;20014;-84
2023/04/13 06:27:32;;;;;;;;;;;12.50;48.40;;;11.31;49.40;99994.88;12251730;19;19922;-84
2023/04/13 06:31:35;;;;;;;;;;;12.50;48.70;;;11.19;49.20;99983.50;12254305;19;19918;-84
2023/04/13 06:35:44;;;;;;;;;;;12.50;48.70;;;11.27;49.31;100006.50;12253697;19;19914;-84
2023/04/13 06:39:47;;;;;;;;;;;12.60;49.40;;;11.32;49.33;100012.25;12258765;19;19926;-84
2023/04/13 06:43:49;;;;;;;;;;;12.60;49.00;;;11.37;49.46;100032.81;12253996;19;19911;-84
2023/04/13 06:48:00;;;;;;;;;;;12.60;48.70;;;11.40;49.54;100032.63;12254884;19;19914;-84
2023/04/13 06:52:06;;;;;;;;;;;12.60;49.10;;;11.46;49.39;100045.25;12258720;19;19948;-84
2023/04/13 06:56:08;;;;;;;;;;;12.60;49.00;;;11.42;49.43;100052.50;12257308;19;19932;-84
2023/04/13 07:00:13;;;;;;;;;;;12.70;49.10;;;11.30;49.41;100037.66;12257371;19;19919;-84
2023/04/13 07:04:15;;;;;;;;;;;12.70;49.10;;;11.46;49.51;100061.78;12254925;19;19914;-84
2023/04/13 07:08:18;;;;;;;;;;;12.70;49.40;;;11.41;49.49;100032.50;12254457;19;19929;-84
2023/04/13 07:12:20;;;;;;;;;;;12.70;49.80;;;11.46;49.76;100038.25;12255831;19;20364;-83
2023/04/13 07:16:22;;;;;;;;;;;12.80;49.80;;;11.46;49.59;100030.41;12251407;19;20279;-84
2023/04/13 07:20:24;;;;;;;;;;;12.60;49.70;;;11.42;49.52;100023.72;12254963;19;19982;-84
2023/04/13 07:24:29;;;;;;;;;;;12.80;49.30;;;11.50;49.72;100038.84;12242424;19;19975;-84
2023/04/13 07:28:33;;;;;;;;;;;12.80;49.10;;;11.57;49.65;100049.75;12248653;19;19915;-84
2023/04/13 07:32:34;;;;;;;;;;;12.80;48.90;;;11.27;49.65;99990.81;12251593;19;20325;-84
2023/04/13 07:36:36;;;;;;;;;;;12.90;48.90;;;11.64;49.73;100046.59;12248886;19;20290;-84
2023/04/13 07:40:44;;;;;;;;;;;12.90;48.80;;;11.63;49.54;100054.53;12252033;19;19915;-84
2023/04/13 07:44:47;;;;;;;;;;;12.90;48.70;;;11.70;49.83;100084.56;12248441;19;19918;-84
2023/04/13 07:48:48;;;;;;;;;;;12.90;48.90;;;11.58;49.55;100043.56;12248432;19;19919;-84
2023/04/13 07:52:57;;;;;;;;;;;13.00;48.70;;;11.46;49.74;100017.34;12250340;19;19922;-84
2023/04/13 07:57:01;;;;;;;;;;;13.00;48.70;;;11.81;49.70;100083.78;12250143;19;20395;-84
2023/04/13 08:01:05;;;;;;;;;;;13.00;48.50;;;11.76;49.65;100068.41;12250178;19;19979;-84
2023/04/13 08:05:08;;;;;;;;;;;13.10;48.60;;;11.78;49.67;100077.00;12252412;19;19922;-84
2023/04/13 08:09:11;;;;;;;;;;;13.10;48.50;;;11.83;49.79;100080.13;12248116;19;19923;-84
2023/04/13 08:13:14;;;;;;;;;;;13.10;48.90;;;11.69;49.72;100061.94;12253117;19;19911;-84
2023/04/13 08:17:18;;;;;;;;;;;13.10;48.60;;;11.70;49.71;100063.63;12249694;19;19931;-85
2023/04/13 08:21:20;;;;;;;;;;;13.20;48.50;;;11.89;49.68;100097.19;12251181;19;19919;-84
2023/04/13 08:25:23;;;;;;;;;;;13.20;48.70;;;11.92;49.72;100104.81;12250354;19;20333;-84
2023/04/13 08:29:26;;;;;;;;;;;13.30;48.90;;;12.01;49.84;100105.94;12249470;19;19939;-84
2023/04/13 08:33:28;;;;;;;;;;;13.30;48.80;;;11.97;49.78;100096.66;12254486;19;19911;-84
2023/04/13 08:37:33;;;;;;;;;;;13.40;48.50;;;12.06;49.84;100106.47;12244848;19;20147;-85
2023/04/13 08:41:46;;;;;;;;;;;13.40;48.70;;;12.12;49.83;100108.63;12252933;19;19915;-84
2023/04/13 08:45:50;;;;;;;;;;;13.50;48.50;;;12.18;49.82;100111.66;12250062;19;19982;-84
2023/04/13 08:49:57;;;;;;;;;;;13.50;48.50;;;12.31;50.00;100132.56;12248905;19;19914;-84
2023/04/13 08:54:27;;;;;;;;;;;13.60;48.30;;;12.38;49.95;100130.31;12248025;19;19922;-84
2023/04/13 08:58:33;;;;;;;;;;;13.70;48.20;;;12.44;49.97;100134.28;12237654;19;20658;-84
2023/04/13 09:02:36;;;;;;;;;;;13.70;48.10;;;12.39;49.92;100116.28;12246390;19;20283;-84
2023/04/13 09:07:48;;;;;;;;;;;;;;;;;;;;;
2023/04/13 09:12:08;;;;;;;;;;;13.90;48.20;;;12.24;50.05;100060.63;12249500;19;19915;-86
2023/04/13 09:16:11;;;;;;;;;;;13.90;48.10;;;12.62;50.03;100106.75;12247159;19;19915;-84
2023/04/13 09:20:22;;;;;;;;;;;14.00;48.50;;;12.81;49.92;100143.75;12245269;19;19926;-85
2023/04/13 09:24:24;;;;;;;;;;;14.10;48.20;;;12.61;49.89;100089.38;12246296;19;19915;-85
2023/04/13 09:28:25;;;;;;;;;;;14.20;48.00;;;12.93;49.88;100141.16;12243245;19;19930;-84
2023/04/13 09:32:27;;;;;;;;;;;14.30;48.20;;;13.03;49.84;100142.97;12247131;19;19931;-85
2023/04/13 09:36:29;;;;;;;;;;;14.30;47.90;;;13.01;50.05;100138.78;12243257;19;19928;-85
2023/04/13 09:40:31;;;;;;;;;;;14.40;47.70;;;13.11;49.88;100138.94;12245485;19;19922;-85
2023/04/13 09:44:34;;;;;;;;;;;14.50;47.60;;;13.19;50.01;100136.59;12245834;19;19926;-85
2023/04/13 09:48:37;;;;;;;;;;;14.60;47.50;;;13.18;49.83;100133.13;12244390;19;19922;-85
2023/04/13 09:52:38;;;;;;;;;;;14.60;47.40;;;13.20;49.92;100133.00;12258748;19;19911;-85
2023/04/13 09:56:45;;;;;;;;;;;14.60;47.40;;;13.15;49.96;100124.66;12257202;19;19919;-84
2023/04/13 10:00:47;;;;;;;;;;;14.60;47.30;;;13.41;49.92;100154.19;12260134;19;19910;-87
2023/04/13 10:04:49;;;;;;;;;;;14.70;47.40;;;13.37;49.87;100126.53;12255957;19;19919;-87
2023/04/13 10:08:50;;;;;;;;;;;14.80;47.30;;;13.31;49.88;100111.25;12254083;19;19922;-86
2023/04/13 10:12:55;;;;;;;;;;;14.90;47.20;;;13.49;49.91;100133.44;12258150;19;19941;-86
2023/04/13 10:17:14;;;;;;;;;;;15.00;47.20;;;13.55;49.78;100132.13;12256989;19;19934;-85
2023/04/13 10:21:17;;;;;;;;;;;15.10;47.10;;;13.75;49.81;100152.44;12263794;19;19915;-86
2023/04/13 10:25:18;;;;;;;;;;;15.10;47.40;;;13.84;49.80;100159.56;12256180;19;19923;-85
2023/04/13 10:29:27;;;;;;;;;;;15.20;46.90;;;13.71;49.78;100127.34;12258669;19;19921;-86
2023/04/13 10:33:30;;;;;;;;;;;15.20;46.90;;;13.91;49.91;100147.66;12255300;19;19918;-85
2023/04/13 10:37:32;;;;;;;;;;;15.30;47.00;;;14.01;49.71;100150.38;12254170;19;19911;-86
2023/04/13 10:41:35;;;;;;;;;;;15.40;45.90;;;14.02;49.86;100146.81;12255743;19;20365;-86
2023/04/13 10:45:38;;;;;;;;;;;15.50;46.80;;;14.17;49.67;100171.81;12253709;19;19922;-86
2023/04/13 10:49:42;;;;;;;;;;;15.50;46.70;;;14.25;49.66;100173.00;12256289;19;19918;-87
2023/04/13 10:53:44;;;;;;;;;;;15.60;46.70;;;14.30;49.80;100178.75;12259186;19;19940;-86
2023/04/13 10:57:45;;;;;;;;;;;15.70;46.20;;;14.31;49.78;100181.25;12252752;19;19918;-84
2023/04/13 11:01:47;;;;;;;;;;;15.70;45.70;;;14.36;49.81;100178.25;12252000;19;19930;-84
2023/04/13 11:05:56;;;;;;;;;;;15.80;46.20;;;14.49;49.75;100188.63;12254353;19;19933;-83
2023/04/13 11:09:57;;;;;;;;;;;15.80;46.50;;;14.54;49.66;100195.19;12261326;19;19923;-85
2023/04/13 11:13:59;;;;;;;;;;;15.90;46.40;;;14.53;49.49;100180.41;12256296;19;19929;-84
2023/04/13 11:18:02;;;;;;;;;;;15.90;46.40;;;14.60;49.59;100197.31;12253977;19;19952;-84
2023/04/13 11:22:04;;;;;;;;;;;16.00;46.30;;;14.56;49.64;100161.75;12256627;19;19923;-84
2023/04/13 11:26:05;;;;;;;;;;;16.00;46.40;;;14.72;49.63;100184.19;12255576;19;19918;-85
2023/04/13 11:30:08;;;;;;;;;;;16.10;46.30;;;14.80;49.66;100200.16;12253541;19;20004;-84
2023/04/13 11:34:12;;;;;;;;;;;16.10;45.90;;;14.72;49.43;100181.53;12257365;19;19943;-84
2023/04/13 11:38:19;;;;;;;;;;;16.20;45.80;;;14.63;49.37;100156.00;12253830;19;19915;-84
2023/04/13 11:42:21;;;;;;;;;;;16.20;46.00;;;14.84;49.52;100191.03;12252427;19;19926;-84
2023/04/13 11:46:25;;;;;;;;;;;16.30;45.70;;;14.93;49.45;100192.09;12250468;19;19918;-85
2023/04/13 11:50:26;;;;;;;;;;;16.30;45.80;;;14.98;49.36;100198.63;12252010;19;19940;-84
2023/04/13 11:54:29;;;;;;;;;;;16.30;44.90;;;15.04;49.26;100195.50;12252558;19;20009;-84
2023/04/13 11:58:30;;;;;;;;;;;16.40;45.30;;;15.08;49.20;100192.63;12250518;19;19918;-84
2023/04/13 12:02:32;;;;;;;;;;;16.40;44.40;;;15.10;49.23;100195.97;12249466;19;19930;-85
2023/04/13 12:06:34;;;;;;;;;;;16.50;45.30;;;15.18;49.27;100211.94;12253074;19;19915;-84
2023/04/13 12:10:35;;;;;;;;;;;16.50;44.80;;;15.18;49.28;100209.31;12253892;19;19922;-84
2023/04/13 12:14:37;;;;;;;;;;;16.50;44.40;;;15.19;49.11;100196.03;12249601;19;19910;-84
2023/04/13 12:18:43;;;;;;;;;;;16.50;43.80;;;15.05;49.08;100176.13;12245931;19;20369;-88
2023/04/13 12:22:44;;;;;;;;;;;16.60;44.10;;;15.25;49.06;100194.69;12252865;19;19919;-85
2023/04/13 12:26:45;;;;;;;;;;;16.60;45.40;;;15.41;49.31;100197.69;12251093;19;19918;-85
2023/04/13 12:30:47;;;;;;;;;;;16.70;45.70;;;15.57;49.23;100204.31;12251820;19;19935;-85
2023/04/13 12:34:48;;;;;;;;;;;16.80;44.90;;;15.65;49.14;100202.69;12253511;19;19910;-86
2023/04/13 12:38:50;;;;;;;;;;;16.90;45.20;;;15.72;49.02;100197.78;12238189;19;19994;-85
2023/04/13 12:42:51;;;;;;;;;;;17.00;45.30;;;15.67;48.95;100195.50;12250173;19;19915;-85
2023/04/13 12:46:53;;;;;;;;;;;17.10;45.30;;;15.55;48.99;100170.22;12248671;19;19925;-85
2023/04/13 12:50:55;;;;;;;;;;;17.10;45.20;;;15.82;49.01;100203.91;12250103;19;19954;-86
2023/04/13 12:54:58;;;;;;;;;;;17.20;45.40;;;15.67;48.96;100165.72;12253586;19;19942;-86
2023/04/13 12:59:00;;;;;;;;;;;17.20;44.10;;;15.83;48.94;100186.34;12245516;19;19919;-85
2023/04/13 13:03:03;;;;;;;;;;;17.20;44.90;;;15.93;48.88;100193.31;12249269;19;19911;-85
2023/04/13 13:07:04;;;;;;;;;;;17.30;44.00;;;15.89;48.87;100181.34;12247083;19;19922;-85
2023/04/13 13:11:09;;;;;;;;;;;17.30;43.50;;;15.88;48.80;100170.97;12252154;19;19982;-86
2023/04/13 13:15:13;;;;;;;;;;;17.30;43.10;;;15.97;48.50;100190.41;12252212;19;19922;-86
2023/04/13 13:19:15;;;;;;;;;;;17.30;44.30;;;15.93;48.61;100179.28;12249789;19;19918;-85
2023/04/13 13:23:18;;;;;;;;;;;17.30;44.70;;;15.88;48.58;100160.44;12247597;19;19978;-85
2023/04/13 13:27:20;;;;;;;;;;;17.30;44.70;;;16.12;48.63;100189.91;12274058;19;19982;-86
2023/04/13 13:31:22;;;;;;;;;;;17.40;42.30;;;16.12;48.44;100173.25;12266588;19;19915;-86
2023/04/13 13:35:24;;;;;;;;;;;17.40;43.70;;;16.03;48.69;100153.00;12271369;19;19911;-86
2023/04/13 13:39:26;;;;;;;;;;;17.50;43.60;;;16.03;48.54;100143.28;12272966;19;19925;-83
2023/04/13 13:43:27;;;;;;;;;;;17.60;43.00;;;16.40;48.58;100197.19;12271074;19;19915;-86
2023/04/13 13:47:28;;;;;;;;;;;17.70;43.30;;;16.35;48.44;100174.72;12269814;19;19929;-86
2023/04/13 13:51:31;;;;;;;;;;;17.70;43.50;;;16.25;48.43;100157.22;12271477;19;19919;-85
2023/04/13 13:55:34;;;;;;;;;;;17.80;43.80;;;16.55;48.43;100186.13;12270941;19;19931;-86
2023/04/13 13:59:35;;;;;;;;;;;17.80;44.10;;;16.64;48.52;100199.47;12272787;19;19925;-85
2023/04/13 14:03:37;;;;;;;;;;;17.90;44.10;;;16.63;48.21;100190.69;12268738;19;19907;-86
2023/04/13 14:07:40;;;;;;;;;;;17.90;42.70;;;16.66;48.22;100187.81;12269937;19;20381;-86
2023/04/13 14:11:42;;;;;;;;;;;17.90;43.80;;;16.70;48.15;100193.63;12271546;19;19922;-86
2023/04/13 14:15:43;;;;;;;;;;;18.00;41.30;;;16.76;48.09;100207.09;12270440;19;20336;-85
2023/04/13 14:19:45;;;;;;;;;;;18.00;44.00;;;16.84;48.22;100210.88;12271005;19;20360;-86
2023/04/13 14:23:47;;;;;;;;;;;18.10;44.20;;;16.81;47.90;100197.00;12271137;19;19927;-86
2023/04/13 14:27:49;;;;;;;;;;;18.10;43.10;;;16.88;48.07;100204.38;12267859;19;20546;-86
2023/04/13 14:31:52;;;;;;;;;;;18.10;39.60;;;16.82;48.05;100208.38;12271898;19;19921;-86
2023/04/13 14:35:54;;;;;;;;;;;18.10;41.90;;;16.94;48.17;100207.28;12263373;19;19926;-86
2023/04/13 14:39:55;;;;;;;;;;;18.20;43.00;;;16.90;47.94;100195.34;12261213;19;19923;-87
2023/04/13 14:43:57;;;;;;;;;;;18.20;43.30;;;16.91;48.03;100194.38;12257214;19;19914;-85
2023/04/13 14:47:58;;;;;;;;;;;18.30;43.40;;;16.99;47.81;100209.53;12256360;19;20341;-85
2023/04/13 14:52:00;;;;;;;;;;;18.30;43.40;;;16.95;47.74;100190.47;12259088;19;19978;-86
2023/04/13 14:56:01;;;;;;;;;;;18.30;42.30;;;17.08;47.87;100218.41;12257417;19;19907;-86
2023/04/13 15:00:06;;;;;;;;;;;18.40;40.40;;;17.00;47.68;100205.91;12257293;19;19925;-85
2023/04/13 15:04:08;;;;;;;;;;;18.40;41.90;;;17.15;47.49;100236.19;12259212;19;19917;-86
2023/04/13 15:08:14;;;;;;;;;;;18.30;42.00;;;17.01;47.68;100197.84;12254980;19;20242;-85
2023/04/13 15:12:15;;;;;;;;;;;18.50;41.90;;;17.11;47.42;100224.22;12258136;19;19949;-85
2023/04/13 15:16:17;;;;;;;;;;;18.50;42.70;;;17.19;47.64;100224.34;12251242;19;19929;-85
2023/04/13 15:20:19;;;;;;;;;;;18.50;42.80;;;17.25;47.29;100244.06;12257153;19;19907;-85
2023/04/13 15:24:20;;;;;;;;;;;18.50;43.30;;;16.97;47.52;100199.09;12254488;19;20365;-85
2023/04/13 15:28:22;;;;;;;;;;;18.50;43.30;;;17.13;47.31;100224.09;12255860;19;19911;-85
2023/04/13 15:32:24;;;;;;;;;;;18.50;43.50;;;17.32;47.49;100241.72;12255909;19;19918;-85
2023/04/13 15:36:26;;;;;;;;;;;18.60;42.90;;;17.17;47.39;100212.28;12252320;19;19939;-85
2023/04/13 15:40:31;;;;;;;;;;;18.60;43.20;;;17.33;47.29;100238.94;12253122;19;19921;-84
2023/04/13 15:44:33;;;;;;;;;;;18.60;41.60;;;17.42;47.10;100248.66;12246442;19;19922;-83
2023/04/13 15:48:34;;;;;;;;;;;18.70;43.00;;;17.36;47.17;100240.44;12247526;19;20278;-84
2023/04/13 15:52:39;;;;;;;;;;;18.70;43.40;;;17.47;47.22;100251.72;12252302;19;19918;-83
2023/04/13 15:56:42;;;;;;;;;;;18.70;43.20;;;17.46;47.19;100271.16;12246686;19;20367;-84
2023/04/13 16:00:44;;;;;;;;;;;18.70;43.10;;;17.31;47.13;100246.19;12252281;19;20373;-84
2023/04/13 16:04:45;;;;;;;;;;;18.70;43.30;;;17.35;47.15;100254.63;12249225;19;19918;-84
2023/04/13 16:08:48;;;;;;;;;;;18.70;43.40;;;17.22;47.08;100253.09;12247498;19;19965;-84
2023/04/13 16:12:49;;;;;;;;;;;18.70;43.50;;;17.47;47.11;100290.44;12252911;19;19923;-85
2023/04/13 16:16:58;;;;;;;;;;;18.70;43.40;;;17.28;46.98;100258.78;12246728;19;19922;-84
2023/04/13 16:21:03;;;;;;;;;;;18.70;43.30;;;17.48;46.88;100292.97;12252928;19;20267;-86
2023/04/13 16:25:05;;;;;;;;;;;18.60;43.40;;;17.32;47.02;100268.94;12235296;19;20373;-84
2023/04/13 16:29:07;;;;;;;;;;;18.60;43.30;;;17.39;46.79;100296.47;12247184;19;19937;-84
2023/04/13 16:33:09;;;;;;;;;;;18.60;43.60;;;17.28;46.84;100280.72;12244765;19;20269;-84
2023/04/13 16:37:11;;;;;;;;;;;18.60;43.50;;;17.35;46.86;100304.78;12245381;19;19918;-84
2023/04/13 16:41:12;;;;;;;;;;;18.50;43.60;;;17.35;46.78;100310.06;12249291;19;19911;-84
2023/04/13 16:45:13;;;;;;;;;;;18.50;43.90;;;17.28;46.94;100307.13;12244509;19;19923;-84
2023/04/13 16:49:15;;;;;;;;;;;18.50;43.80;;;17.24;46.96;100311.03;12244315;19;20667;-84
2023/04/13 16:53:17;;;;;;;;;;;18.50;44.20;;;17.30;46.94;100322.84;12249539;19;19919;-84
2023/04/13 16:57:18;;;;;;;;;;;18.40;43.80;;;17.19;46.83;100319.34;12242676;19;19978;-84
2023/04/13 17:01:20;;;;;;;;;;;18.40;43.90;;;17.13;46.58;100316.44;12248095;19;20347;-84
2023/04/13 17:05:26;;;;;;;;;;;18.40;43.80;;;17.18;46.50;100336.16;12249743;19;19975;-86
2023/04/13 17:09:28;;;;;;;;;;;18.30;43.80;;;17.14;46.62;100331.28;12251088;19;19926;-84
2023/04/13 17:13:30;;;;;;;;;;;18.30;43.90;;;16.94;46.48;100325.16;12245912;19;19923;-85
2023/04/13 17:17:32;;;;;;;;;;;18.30;43.80;;;17.08;46.45;100352.94;12247717;19;19943;-84
2023/04/13 17:21:34;;;;;;;;;;;18.20;43.70;;;16.98;46.66;100347.63;12245905;19;19927;-83
2023/04/13 17:25:40;;;;;;;;;;;18.20;43.80;;;16.84;46.62;100325.13;12247145;19;19922;-84
2023/04/13 17:29:41;;;;;;;;;;;18.10;43.70;;;16.76;46.45;100336.31;12249016;19;19922;-84
2023/04/13 17:33:44;;;;;;;;;;;18.00;43.70;;;16.71;46.59;100343.78;12246222;19;20341;-84
2023/04/13 17:37:46;;;;;;;;;;;17.90;43.70;;;16.72;46.41;100349.91;12243281;19;19922;-84
2023/04/13 17:41:47;;;;;;;;;;;17.80;43.80;;;16.55;46.41;100338.16;12248009;19;19919;-84
2023/04/13 17:45:49;;;;;;;;;;;17.70;43.80;;;16.43;46.65;100334.81;12245049;19;19925;-83
2023/04/13 17:49:50;;;;;;;;;;;17.60;43.90;;;16.43;46.51;100345.34;12246745;19;19936;-83
2023/04/13 17:53:52;;;;;;;;;;;17.60;43.90;;;16.36;46.27;100352.09;12244160;19;19914;-83
2023/04/13 17:57:53;;;;;;;;;;;17.40;44.30;;;16.30;46.47;100364.00;12242938;19;19911;-84
2023/04/13 18:01:57;;;;;;;;;;;17.30;43.90;;;16.20;46.44;100359.63;12247514;19;19907;-84
2023/04/13 18:05:59;;;;;;;;;;;17.20;43.80;;;16.08;46.39;100362.34;12246010;19;19914;-84
2023/04/13 18:10:00;;;;;;;;;;;17.20;43.90;;;15.95;46.38;100356.44;12245661;19;19937;-84
2023/04/13 18:14:02;;;;;;;;;;;17.00;43.90;;;15.84;46.50;100367.88;12259480;19;19919;-84
2023/04/13 18:18:04;;;;;;;;;;;16.90;44.00;;;15.74;46.43;100358.22;12254534;19;20267;-84
2023/04/13 18:22:06;;;;;;;;;;;16.80;44.00;;;15.68;46.41;100356.91;12261041;19;19918;-84
2023/04/13 18:26:07;;;;;;;;;;;16.70;44.10;;;15.54;46.03;100354.59;12257827;19;19926;-84